Terminal Aerodrome Forecast
Issued by NWS

Home | Current Version | Previous Version | Text Only | Print | Product List | Glossary Off
Versions: 1 2 3 4 5 6 7 8 9 10 11 12 13 14 15 16 17 18 19 20 21 22

664
FTUS43 KMPX 180520
TAFAXN
TAF
KAXN 180520Z 1806/1906 18004KT P6SM BKN250
     FM180800 12007KT P6SM OVC100
     FM181000 12017G25KT 6SM -SN BR OVC050
     FM181500 14015G24KT P6SM OVC035
     FM182100 01013KT P6SM BKN025 OVC035
     FM190300 36013G19KT P6SM OVC025=

USA.gov is the U.S. government's official web portal to all federal, state and local government web resources and services.